Airfield :
LOGIN :

Register | Disclaimer

   EN    FR    IT 

 










Legend :    VFR   Marginal VFR   IFR   Intensive IFR   Very Intensive IFR
Visi :
Ceiling :
>= 8 km
>= 3000ft
5 to 8 km
1000 to 3000 ft
1500m to 5 km
500 to 1000 ft
800 to 1500m
200 to 500 ft
< 800m
< 200 ft
Symbols :   Thunderstorms  Fog  Heavy snow  Heavy precipitations  Wind > 20 kt
SIGMETs :     Misc.  Thunderstorms  Icing  Turbulence  Mountain Waves  Volcanic Ashes







- Airport Elevation : 3 ft
- IATA code : LWR


EHLW - Leuuwarden Air Base

CURRENT METAR :
  • 270255Z AUTO 24002KT 9999 NCD 01/M00 Q1015 BLU

EXPIRED METARs :
  • 270225Z AUTO 27001KT 9999 NCD 01/M01 Q1015 BLU
  • 270155Z AUTO 32005KT 240V350 9999 NCD 01/M01 Q1015 BLU
  • 270125Z AUTO 30004KT 280V340 9999 FEW050 01/M01 Q1015 BLU
  • 270055Z AUTO 34003KT 270V340 9999 NCD 02/M01 Q1015 BLU
  • 270025Z AUTO 36004KT 9999 NCD 01/M00 Q1015 BLU

Expired Forecast.
No reported NOTAMs for that airfield.



MET'MAP, your aeronautical weather chart ! - Copyright ORBIFLY December 2007 - Disclaimer

ORBIFLY MET'MAP TEAM :

Programming & Development : Alexandra Zaïnal
Concept & Development : Baudouin d'Aumeries
Co-Development & Prog : Marc-Olivier Méhu
Technical & hardware support : Manuel Goepfert

Contact : metmap@orbifly.com




SOURCES & CREDITS :

   NOAA